createdAt,value
2022-08-26T00:00:58.998Z,21.98
2022-08-26T00:02:00.554Z,21.98
2022-08-26T00:03:02.066Z,21.98
2022-08-26T00:04:04.358Z,21.96
2022-08-26T00:05:05.951Z,21.99
2022-08-26T00:06:07.392Z,21.97
2022-08-26T00:07:09.909Z,21.98
2022-08-26T00:08:13.163Z,21.96
2022-08-26T00:09:16.747Z,21.94
2022-08-26T00:10:18.399Z,21.91
2022-08-26T00:11:26.513Z,21.89
2022-08-26T00:12:36.160Z,21.88
2022-08-26T00:13:39.710Z,21.84
2022-08-26T00:14:49.497Z,21.80
2022-08-26T00:15:50.908Z,21.75
2022-08-26T00:16:52.352Z,21.73
2022-08-26T00:17:56.766Z,21.69
2022-08-26T00:18:58.257Z,21.68
2022-08-26T00:19:59.703Z,21.65
2022-08-26T00:21:01.192Z,21.62
2022-08-26T00:22:07.721Z,21.60
2022-08-26T00:23:09.540Z,21.56
2022-08-26T00:24:11.028Z,21.59
2022-08-26T00:25:12.890Z,21.55
2022-08-26T00:26:14.606Z,21.53
2022-08-26T00:27:16.016Z,21.53
2022-08-26T00:28:19.114Z,21.50
2022-08-26T00:29:22.945Z,21.47
2022-08-26T00:30:27.537Z,21.45
2022-08-26T00:31:31.196Z,21.43
2022-08-26T00:32:32.821Z,21.41
2022-08-26T00:33:35.961Z,21.39
2022-08-26T00:34:37.376Z,21.36
2022-08-26T00:35:39.021Z,21.35
2022-08-26T00:36:47.281Z,21.31
2022-08-26T00:37:50.776Z,21.33
2022-08-26T00:38:52.202Z,21.31
2022-08-26T00:39:53.692Z,21.29
2022-08-26T00:40:56.378Z,21.28
2022-08-26T00:41:57.842Z,21.26
2022-08-26T00:42:59.742Z,21.25
2022-08-26T00:44:01.152Z,21.26
2022-08-26T00:45:02.830Z,21.24
2022-08-26T00:46:14.675Z,21.23
2022-08-26T00:47:24.564Z,21.23
2022-08-26T00:48:30.775Z,21.22
2022-08-26T00:49:36.097Z,21.21
2022-08-26T00:50:39.460Z,21.21
2022-08-26T00:51:45.908Z,21.26
2022-08-26T00:52:48.262Z,21.24
2022-08-26T00:54:01.038Z,21.22
2022-08-26T00:55:09.159Z,21.21
2022-08-26T00:56:15.275Z,21.18
2022-08-26T00:57:18.434Z,21.16
2022-08-26T00:58:22.333Z,21.15
2022-08-26T00:59:24.335Z,21.14
2022-08-26T01:00:29.530Z,21.12
2022-08-26T01:01:30.972Z,21.09
2022-08-26T01:02:32.977Z,21.05
2022-08-26T01:03:35.108Z,21.03
2022-08-26T01:04:38.317Z,20.99
2022-08-26T01:05:40.889Z,20.98
2022-08-26T01:06:42.325Z,20.97
2022-08-26T01:07:46.065Z,20.94
2022-08-26T01:08:47.843Z,20.93
2022-08-26T01:09:49.290Z,20.91
2022-08-26T01:10:55.787Z,20.90
2022-08-26T01:11:58.963Z,20.90
2022-08-26T01:13:02.791Z,20.87
2022-08-26T01:14:06.476Z,20.88
2022-08-26T01:15:10.557Z,20.87
2022-08-26T01:16:14.315Z,20.88
2022-08-26T01:17:16.449Z,20.88
2022-08-26T01:18:18.223Z,20.87
2022-08-26T01:19:25.492Z,20.86
2022-08-26T01:20:36.229Z,20.84
2022-08-26T01:21:57.908Z,20.82
2022-08-26T01:23:01.630Z,20.80
2022-08-26T01:24:05.356Z,20.78
2022-08-26T01:25:06.867Z,20.76
2022-08-26T01:26:15.341Z,20.76
2022-08-26T01:27:21.883Z,20.75
2022-08-26T01:28:26.903Z,20.72
2022-08-26T01:29:29.805Z,20.72
2022-08-26T01:30:33.058Z,20.72
2022-08-26T01:31:39.057Z,20.72
2022-08-26T01:32:41.405Z,20.71
2022-08-26T01:33:55.035Z,20.69
2022-08-26T01:34:56.535Z,20.68
2022-08-26T01:35:58.167Z,20.68
2022-08-26T01:37:02.762Z,20.66
2022-08-26T01:38:04.666Z,20.67
2022-08-26T01:39:07.235Z,20.68
2022-08-26T01:40:12.273Z,20.67
2022-08-26T01:41:19.761Z,20.66
2022-08-26T01:42:22.280Z,20.67
2022-08-26T01:43:26.285Z,20.66
2022-08-26T01:44:30.636Z,20.64
2022-08-26T01:45:33.277Z,20.64
2022-08-26T01:46:35.018Z,20.63
2022-08-26T01:47:37.551Z,20.64
2022-08-26T01:48:39.413Z,20.65
2022-08-26T01:49:41.544Z,20.62
2022-08-26T01:50:43.927Z,20.62
2022-08-26T01:51:46.499Z,20.62
2022-08-26T01:52:51.671Z,20.62
2022-08-26T01:53:56.250Z,20.62
2022-08-26T01:55:01.653Z,20.62
2022-08-26T01:56:03.617Z,20.64
2022-08-26T01:57:05.570Z,20.64
2022-08-26T01:58:09.628Z,20.63
2022-08-26T01:59:14.034Z,20.62
2022-08-26T02:00:16.128Z,20.64
2022-08-26T02:01:18.227Z,20.64
2022-08-26T02:02:19.753Z,20.63
2022-08-26T02:03:21.327Z,20.65
2022-08-26T02:04:25.729Z,20.65
2022-08-26T02:05:27.341Z,20.66
2022-08-26T02:06:29.290Z,20.66
2022-08-26T02:07:33.234Z,20.67
2022-08-26T02:08:36.885Z,20.69
2022-08-26T02:09:41.196Z,20.70
2022-08-26T02:10:43.171Z,20.71
2022-08-26T02:11:44.638Z,20.73
2022-08-26T02:12:46.014Z,20.73
2022-08-26T02:14:08.484Z,20.72
2022-08-26T02:15:12.384Z,20.76
2022-08-26T02:16:16.174Z,20.76
2022-08-26T02:17:19.840Z,20.75
2022-08-26T02:18:23.137Z,20.75
2022-08-26T02:19:32.397Z,20.78
2022-08-26T02:20:33.818Z,20.81
2022-08-26T02:21:35.891Z,20.82
2022-08-26T02:22:38.203Z,20.83
2022-08-26T02:23:40.174Z,20.83
2022-08-26T02:24:49.391Z,20.83
2022-08-26T02:25:54.614Z,20.83
2022-08-26T02:26:56.830Z,20.85
2022-08-26T02:27:58.262Z,20.86
2022-08-26T02:29:05.210Z,20.83
2022-08-26T02:30:15.045Z,20.80
2022-08-26T02:31:18.703Z,20.74
2022-08-26T02:32:20.777Z,20.71
2022-08-26T02:33:22.373Z,20.68
2022-08-26T02:34:28.160Z,20.65
2022-08-26T02:35:33.574Z,20.63
2022-08-26T02:36:36.578Z,20.63
2022-08-26T02:37:37.952Z,20.61
2022-08-26T02:38:39.400Z,20.57
2022-08-26T02:39:42.025Z,20.55
2022-08-26T02:40:43.379Z,20.53
2022-08-26T02:41:45.451Z,20.53
2022-08-26T02:42:47.234Z,20.50
2022-08-26T02:43:48.629Z,20.49
2022-08-26T02:44:50.254Z,20.49
2022-08-26T02:45:51.645Z,20.46
2022-08-26T02:46:54.161Z,20.44
2022-08-26T02:47:56.018Z,20.42
2022-08-26T02:48:58.508Z,20.39
2022-08-26T02:49:59.938Z,20.38
2022-08-26T02:51:01.710Z,20.35
2022-08-26T02:52:03.433Z,20.33
2022-08-26T02:53:05.545Z,20.33
2022-08-26T02:54:07.585Z,20.33
2022-08-26T02:55:09.078Z,20.34
2022-08-26T02:56:10.777Z,20.31
2022-08-26T02:57:12.313Z,20.31
2022-08-26T02:58:13.839Z,20.32
2022-08-26T02:59:15.306Z,20.37
2022-08-26T03:00:16.979Z,20.37
2022-08-26T03:01:19.594Z,20.38
2022-08-26T03:02:21.057Z,20.36
2022-08-26T03:03:23.697Z,20.30
2022-08-26T03:04:25.969Z,20.28
2022-08-26T03:05:27.478Z,20.26
2022-08-26T03:06:29.483Z,20.25
2022-08-26T03:07:30.865Z,20.22
2022-08-26T03:08:32.313Z,20.22
2022-08-26T03:09:35.023Z,20.21
2022-08-26T03:10:36.585Z,20.20
2022-08-26T03:11:38.177Z,20.17
2022-08-26T03:12:39.671Z,20.15
2022-08-26T03:13:41.223Z,20.14
2022-08-26T03:14:43.169Z,20.12
2022-08-26T03:15:44.627Z,20.11
2022-08-26T03:16:49.197Z,20.10
2022-08-26T03:17:50.676Z,20.08
2022-08-26T03:18:52.623Z,20.07
2022-08-26T03:19:57.320Z,20.06
2022-08-26T03:20:59.365Z,20.04
2022-08-26T03:22:01.644Z,20.04
2022-08-26T03:23:03.094Z,20.03
2022-08-26T03:24:06.005Z,20.03
2022-08-26T03:25:08.788Z,20.01
2022-08-26T03:26:11.676Z,20.01
2022-08-26T03:27:13.658Z,20.00
2022-08-26T03:28:15.878Z,20.01
2022-08-26T03:29:20.168Z,20.01
2022-08-26T03:30:21.546Z,20.04
2022-08-26T03:31:24.608Z,20.04
2022-08-26T03:32:27.211Z,20.03
2022-08-26T03:33:28.757Z,20.00
2022-08-26T03:34:30.689Z,20.03
2022-08-26T03:35:32.890Z,20.01
2022-08-26T03:36:35.171Z,20.00
2022-08-26T03:37:36.830Z,19.98
2022-08-26T03:38:40.047Z,20.02
2022-08-26T03:39:41.504Z,20.02
2022-08-26T03:40:43.343Z,19.99
2022-08-26T03:41:45.543Z,19.96
2022-08-26T03:42:47.187Z,19.96
2022-08-26T03:43:49.098Z,19.96
2022-08-26T03:44:50.541Z,19.93
2022-08-26T03:45:52.397Z,19.90
2022-08-26T03:46:54.116Z,19.89
2022-08-26T03:47:55.916Z,19.88
2022-08-26T03:49:00.566Z,19.87
2022-08-26T03:50:02.502Z,19.86
2022-08-26T03:51:04.853Z,19.83
2022-08-26T03:52:06.461Z,19.82
2022-08-26T03:53:12.877Z,19.84
2022-08-26T03:54:14.818Z,19.84
2022-08-26T03:55:16.545Z,19.81
2022-08-26T03:56:19.209Z,19.79
2022-08-26T03:57:20.575Z,19.79
2022-08-26T03:58:23.625Z,19.76
2022-08-26T03:59:25.148Z,19.76
2022-08-26T04:00:26.628Z,19.74
2022-08-26T04:01:28.866Z,19.75
2022-08-26T04:02:30.609Z,19.74
2022-08-26T04:03:32.371Z,19.70
2022-08-26T04:04:34.951Z,19.69
2022-08-26T04:05:36.392Z,19.67
2022-08-26T04:06:41.895Z,19.67
2022-08-26T04:07:44.675Z,19.68
2022-08-26T04:08:46.051Z,19.66
2022-08-26T04:09:47.469Z,19.67
2022-08-26T04:10:48.827Z,19.66
2022-08-26T04:11:52.561Z,19.67
2022-08-26T04:12:54.117Z,19.68
2022-08-26T04:13:55.578Z,19.69
2022-08-26T04:14:58.163Z,19.73
2022-08-26T04:15:59.655Z,19.75
2022-08-26T04:17:01.135Z,19.76
2022-08-26T04:18:02.583Z,19.79
2022-08-26T04:19:04.368Z,19.86
2022-08-26T04:20:07.095Z,19.89
2022-08-26T04:21:09.059Z,19.88
2022-08-26T04:22:12.621Z,19.89
2022-08-26T04:23:14.594Z,19.89
2022-08-26T04:24:20.374Z,19.88
2022-08-26T04:25:21.985Z,19.89
2022-08-26T04:26:24.021Z,19.88
2022-08-26T04:27:25.641Z,19.87
2022-08-26T04:28:27.865Z,19.89
2022-08-26T04:29:29.319Z,19.88
2022-08-26T04:30:30.730Z,19.89
2022-08-26T04:31:33.836Z,19.92
2022-08-26T04:32:35.314Z,19.92
2022-08-26T04:33:41.627Z,19.90
2022-08-26T04:34:43.682Z,19.89
2022-08-26T04:35:46.426Z,19.89
2022-08-26T04:36:49.774Z,19.90
2022-08-26T04:37:51.186Z,19.90
2022-08-26T04:38:52.698Z,19.88
2022-08-26T04:39:55.260Z,19.90
2022-08-26T04:40:57.268Z,19.91
2022-08-26T04:41:58.904Z,19.91
2022-08-26T04:43:03.455Z,19.93
2022-08-26T04:44:05.080Z,19.98
2022-08-26T04:45:09.967Z,20.01
2022-08-26T04:46:13.586Z,20.05
2022-08-26T04:47:15.163Z,20.08
2022-08-26T04:48:16.900Z,20.11
2022-08-26T04:49:18.561Z,20.16
2022-08-26T04:50:20.149Z,20.19
2022-08-26T04:51:25.080Z,20.19
2022-08-26T04:52:26.469Z,20.20
2022-08-26T04:53:29.637Z,20.24
2022-08-26T04:54:31.050Z,20.25
2022-08-26T04:55:38.642Z,20.26
2022-08-26T04:56:45.290Z,20.28
2022-08-26T04:57:47.113Z,20.31
2022-08-26T04:58:48.500Z,20.33
2022-08-26T04:59:49.999Z,20.36
2022-08-26T05:00:52.346Z,20.37
2022-08-26T05:01:55.279Z,20.41
2022-08-26T05:02:56.898Z,20.45
2022-08-26T05:03:58.905Z,20.48
2022-08-26T05:05:00.573Z,20.54
2022-08-26T05:06:03.646Z,20.59
2022-08-26T05:07:05.073Z,20.63
2022-08-26T05:08:08.780Z,20.68
2022-08-26T05:09:10.509Z,20.74
2022-08-26T05:10:12.142Z,20.80
2022-08-26T05:11:16.267Z,20.84
2022-08-26T05:12:17.804Z,20.90
2022-08-26T05:13:21.047Z,20.95
2022-08-26T05:14:22.809Z,20.98
2022-08-26T05:15:24.211Z,21.04
2022-08-26T05:16:25.776Z,21.08
2022-08-26T05:17:27.291Z,21.12
2022-08-26T05:18:28.735Z,21.14
2022-08-26T05:19:30.217Z,21.21
2022-08-26T05:20:31.664Z,21.29
2022-08-26T05:21:34.045Z,21.34
2022-08-26T05:22:35.890Z,21.41
2022-08-26T05:23:37.293Z,21.48
2022-08-26T05:24:38.868Z,21.56
2022-08-26T05:25:42.370Z,21.62
2022-08-26T05:26:44.620Z,21.68
2022-08-26T05:27:46.235Z,21.70
2022-08-26T05:28:47.664Z,21.78
2022-08-26T05:29:54.374Z,21.85
2022-08-26T05:30:56.709Z,21.97
2022-08-26T05:31:58.202Z,22.07
2022-08-26T05:32:59.586Z,22.17
2022-08-26T05:34:03.624Z,22.32
2022-08-26T05:35:05.486Z,22.38
2022-08-26T05:36:11.750Z,22.43
2022-08-26T05:37:14.754Z,22.41
2022-08-26T05:38:19.850Z,22.43
2022-08-26T05:39:21.282Z,22.38
2022-08-26T05:40:22.869Z,22.32
2022-08-26T05:41:34.190Z,22.27
2022-08-26T05:42:37.828Z,22.17
2022-08-26T05:43:39.295Z,22.15
2022-08-26T05:44:55.472Z,22.10
2022-08-26T05:46:05.984Z,22.08
2022-08-26T05:47:07.521Z,22.07
2022-08-26T05:48:10.171Z,22.13
2022-08-26T05:49:13.034Z,22.10
2022-08-26T05:50:14.674Z,22.09
2022-08-26T05:51:16.350Z,22.07
2022-08-26T05:52:18.048Z,22.08
2022-08-26T05:53:21.201Z,22.10
2022-08-26T05:54:22.627Z,22.14
2022-08-26T05:55:24.043Z,22.17
2022-08-26T05:56:25.714Z,22.19
2022-08-26T05:57:28.290Z,22.24
2022-08-26T05:58:29.814Z,22.26
2022-08-26T05:59:31.214Z,22.31
2022-08-26T06:00:33.950Z,22.33
2022-08-26T06:01:35.379Z,22.35
2022-08-26T06:02:37.581Z,22.37
2022-08-26T06:03:39.925Z,22.39
2022-08-26T06:04:41.964Z,22.35
2022-08-26T06:05:44.124Z,22.37
2022-08-26T06:06:46.157Z,22.39
2022-08-26T06:07:47.522Z,22.35
2022-08-26T06:08:49.312Z,22.38
2022-08-26T06:09:50.753Z,22.35
2022-08-26T06:10:53.429Z,22.35
2022-08-26T06:11:55.054Z,22.39
2022-08-26T06:12:56.540Z,22.34
2022-08-26T06:14:03.584Z,22.29
2022-08-26T06:15:05.916Z,22.30
2022-08-26T06:16:08.785Z,22.30
2022-08-26T06:17:10.282Z,22.31
2022-08-26T06:18:12.529Z,22.38
2022-08-26T06:19:14.391Z,22.42
2022-08-26T06:20:15.813Z,22.46
2022-08-26T06:21:25.007Z,22.55
2022-08-26T06:22:26.459Z,22.61
2022-08-26T06:23:29.394Z,22.64
2022-08-26T06:24:30.797Z,22.63
2022-08-26T06:25:32.169Z,22.63
2022-08-26T06:26:34.559Z,22.64
2022-08-26T06:27:38.121Z,22.64
2022-08-26T06:28:40.079Z,22.58
2022-08-26T06:29:45.045Z,22.60
2022-08-26T06:30:46.501Z,22.65
2022-08-26T06:31:48.218Z,22.74
2022-08-26T06:32:49.654Z,22.87
2022-08-26T06:33:51.574Z,22.96
2022-08-26T06:34:52.985Z,23.07
2022-08-26T06:35:54.712Z,23.17
2022-08-26T06:36:56.816Z,23.36
2022-08-26T06:37:58.316Z,23.58
2022-08-26T06:39:00.756Z,23.79
2022-08-26T06:40:02.321Z,24.11
2022-08-26T06:41:07.791Z,24.48
2022-08-26T06:42:09.209Z,24.95
2022-08-26T06:43:12.649Z,25.41
2022-08-26T06:44:14.845Z,25.81
2022-08-26T06:45:16.218Z,26.15
2022-08-26T06:46:20.091Z,26.54
2022-08-26T06:47:21.510Z,26.97
2022-08-26T06:48:23.894Z,27.30
2022-08-26T06:49:25.706Z,27.68
2022-08-26T06:50:28.701Z,27.78
2022-08-26T06:51:31.442Z,27.93
2022-08-26T06:52:36.218Z,27.93
2022-08-26T06:53:37.835Z,27.58
2022-08-26T06:54:42.497Z,27.39
2022-08-26T06:55:45.214Z,27.25
2022-08-26T06:56:46.637Z,27.04
2022-08-26T06:57:49.373Z,26.93
2022-08-26T06:58:51.291Z,26.69
2022-08-26T06:59:52.717Z,26.47
2022-08-26T07:00:54.074Z,26.46
2022-08-26T07:01:55.565Z,26.26
2022-08-26T07:02:57.052Z,26.18
2022-08-26T07:03:59.829Z,26.03
2022-08-26T07:05:01.724Z,25.98
2022-08-26T07:06:03.646Z,25.86
2022-08-26T07:07:05.023Z,25.87
2022-08-26T07:08:06.672Z,25.76
2022-08-26T07:09:10.021Z,25.68
2022-08-26T07:10:11.631Z,25.67
2022-08-26T07:11:13.312Z,25.58
2022-08-26T07:12:14.801Z,25.53
2022-08-26T07:13:16.281Z,25.58
2022-08-26T07:14:33.508Z,25.61
2022-08-26T07:15:38.980Z,25.60
2022-08-26T07:16:41.281Z,25.59
2022-08-26T07:17:42.839Z,25.62
2022-08-26T07:18:45.940Z,25.58
2022-08-26T07:19:47.940Z,25.46
2022-08-26T07:20:50.653Z,25.52
2022-08-26T07:21:52.102Z,25.56
2022-08-26T07:22:56.992Z,25.62
2022-08-26T07:24:01.590Z,25.61
2022-08-26T07:25:04.180Z,25.58
2022-08-26T07:26:08.695Z,25.51
2022-08-26T07:27:12.200Z,25.48
2022-08-26T07:28:13.589Z,25.46
2022-08-26T07:29:15.082Z,25.47
2022-08-26T07:30:16.593Z,25.37
2022-08-26T07:31:19.352Z,25.37
2022-08-26T07:32:20.820Z,25.43
2022-08-26T07:33:24.369Z,25.43
2022-08-26T07:34:26.219Z,25.37
2022-08-26T07:35:27.695Z,25.34
2022-08-26T07:36:29.168Z,25.34
2022-08-26T07:37:30.613Z,25.44
2022-08-26T07:38:41.800Z,25.48
2022-08-26T07:39:43.600Z,25.55
2022-08-26T07:40:45.111Z,25.56
2022-08-26T07:41:46.812Z,25.65
2022-08-26T07:42:48.208Z,25.77
2022-08-26T07:43:50.589Z,25.75
2022-08-26T07:44:52.138Z,25.81
2022-08-26T07:45:53.549Z,25.78
2022-08-26T07:46:54.997Z,25.71
2022-08-26T07:47:56.409Z,25.75
2022-08-26T07:48:58.077Z,25.69
2022-08-26T07:49:59.465Z,25.72
2022-08-26T07:51:00.996Z,25.76
2022-08-26T07:52:02.553Z,25.77
2022-08-26T07:53:04.187Z,25.76
2022-08-26T07:54:05.936Z,25.76
2022-08-26T07:55:08.256Z,25.77
2022-08-26T07:56:09.736Z,25.81
2022-08-26T07:57:12.873Z,25.87
2022-08-26T07:58:14.255Z,25.87
2022-08-26T07:59:16.781Z,25.92
2022-08-26T08:00:18.165Z,25.95
2022-08-26T08:01:20.567Z,25.91
2022-08-26T08:02:22.968Z,25.88
2022-08-26T08:03:24.348Z,25.86
2022-08-26T08:04:26.664Z,25.86
2022-08-26T08:05:33.408Z,25.92
2022-08-26T08:06:35.324Z,25.93
2022-08-26T08:07:44.676Z,25.95
2022-08-26T08:08:47.049Z,26.00
2022-08-26T08:09:48.804Z,26.04
2022-08-26T08:10:50.174Z,26.04
2022-08-26T08:11:52.190Z,26.08
2022-08-26T08:12:53.564Z,26.07
2022-08-26T08:13:56.397Z,26.06
2022-08-26T08:14:58.359Z,26.10
2022-08-26T08:16:01.022Z,26.16
2022-08-26T08:17:02.864Z,25.98
2022-08-26T08:18:04.968Z,25.90
2022-08-26T08:19:06.692Z,25.95
2022-08-26T08:20:08.304Z,25.96
2022-08-26T08:21:25.073Z,25.93
2022-08-26T08:22:26.574Z,25.91
2022-08-26T08:23:29.375Z,25.91
2022-08-26T08:24:31.637Z,25.93
2022-08-26T08:25:34.147Z,25.85
2022-08-26T08:26:35.551Z,25.83
2022-08-26T08:27:38.268Z,25.83
2022-08-26T08:28:39.768Z,25.85
2022-08-26T08:29:42.984Z,25.86
2022-08-26T08:30:44.440Z,25.90
2022-08-26T08:31:56.940Z,25.78
2022-08-26T08:32:59.663Z,25.82
2022-08-26T08:34:01.144Z,25.81
2022-08-26T08:35:02.581Z,25.79
2022-08-26T08:36:12.461Z,25.82
2022-08-26T08:37:20.189Z,25.88
2022-08-26T08:38:22.811Z,25.89
2022-08-26T08:39:26.205Z,25.83
2022-08-26T08:40:27.769Z,25.87
2022-08-26T08:41:50.933Z,25.93
2022-08-26T08:42:56.176Z,25.95
2022-08-26T08:44:00.141Z,25.88
2022-08-26T08:45:12.204Z,25.80
2022-08-26T08:46:15.122Z,25.77
2022-08-26T08:47:25.732Z,25.85
2022-08-26T08:48:50.189Z,25.95
2022-08-26T08:49:53.980Z,26.08
2022-08-26T08:51:02.160Z,26.06
2022-08-26T08:52:10.571Z,26.02
2022-08-26T08:53:18.702Z,26.09
2022-08-26T08:54:21.898Z,26.11
2022-08-26T08:55:25.555Z,26.10
2022-08-26T08:56:26.933Z,26.05
2022-08-26T08:57:37.157Z,26.08
2022-08-26T08:58:44.329Z,26.16
2022-08-26T08:59:55.811Z,26.10
2022-08-26T09:01:00.293Z,26.15
2022-08-26T09:02:03.943Z,26.18
2022-08-26T09:03:23.999Z,26.17
2022-08-26T09:04:40.797Z,26.19
2022-08-26T09:05:48.577Z,26.21
2022-08-26T09:06:53.712Z,26.08
2022-08-26T09:08:00.981Z,25.91
2022-08-26T09:09:02.792Z,25.92
2022-08-26T09:10:23.842Z,26.00
2022-08-26T09:11:25.765Z,26.06
2022-08-26T09:12:31.505Z,26.14
2022-08-26T09:13:33.580Z,26.20
2022-08-26T09:14:35.358Z,26.31
2022-08-26T09:15:55.541Z,26.38
2022-08-26T09:17:15.884Z,26.48
2022-08-26T09:18:25.028Z,26.53
2022-08-26T09:19:35.774Z,26.59
2022-08-26T09:20:46.508Z,26.59
2022-08-26T09:21:54.842Z,26.67
2022-08-26T09:22:58.238Z,26.78
2022-08-26T09:24:00.178Z,26.86
2022-08-26T09:25:01.893Z,26.97
2022-08-26T09:26:25.958Z,27.02
2022-08-26T09:27:39.667Z,27.14
2022-08-26T09:28:42.426Z,27.14
2022-08-26T09:29:43.939Z,27.19
2022-08-26T09:30:47.020Z,27.21
2022-08-26T09:31:48.472Z,27.21
2022-08-26T09:33:01.218Z,27.25
2022-08-26T09:34:17.360Z,27.28
2022-08-26T09:35:27.365Z,27.32
2022-08-26T09:36:39.193Z,27.44
2022-08-26T09:38:53.440Z,27.59
2022-08-26T09:39:56.339Z,27.66
2022-08-26T09:40:59.616Z,27.68
2022-08-26T09:42:03.967Z,27.77
2022-08-26T09:43:09.824Z,27.85
2022-08-26T09:44:15.606Z,27.81
2022-08-26T09:45:26.837Z,27.88
2022-08-26T09:46:28.529Z,27.95
2022-08-26T09:47:41.363Z,27.89
2022-08-26T09:48:42.781Z,27.98
2022-08-26T09:49:44.127Z,28.06
2022-08-26T09:51:14.731Z,28.19
2022-08-26T09:52:23.531Z,28.30
2022-08-26T09:53:46.030Z,28.38
2022-08-26T09:54:57.909Z,28.49
2022-08-26T09:56:14.943Z,28.50
2022-08-26T09:57:20.692Z,28.62
2022-08-26T09:58:33.272Z,28.63
2022-08-26T09:59:34.626Z,28.66
2022-08-26T10:00:41.272Z,28.76
2022-08-26T10:01:44.979Z,28.75
2022-08-26T10:02:49.547Z,28.80
2022-08-26T10:03:51.748Z,28.80
2022-08-26T10:04:55.254Z,28.87
2022-08-26T10:06:06.650Z,28.97
2022-08-26T10:07:09.386Z,29.02
2022-08-26T10:08:21.460Z,28.98
2022-08-26T10:09:25.514Z,28.94
2022-08-26T10:10:31.872Z,28.98
2022-08-26T10:11:42.042Z,29.01
2022-08-26T10:12:49.210Z,29.11
2022-08-26T10:14:00.488Z,29.12
2022-08-26T10:15:07.971Z,29.17
2022-08-26T10:16:21.924Z,29.32
2022-08-26T10:17:26.079Z,29.38
2022-08-26T10:18:34.076Z,29.41
2022-08-26T10:19:55.979Z,29.33
2022-08-26T10:21:09.602Z,29.35
2022-08-26T10:22:30.066Z,29.44
2022-08-26T10:23:34.362Z,29.58
2022-08-26T10:24:44.387Z,29.61
2022-08-26T10:25:56.953Z,29.57
2022-08-26T10:27:03.755Z,29.52
2022-08-26T10:28:20.630Z,29.58
2022-08-26T10:29:43.977Z,29.65
2022-08-26T10:30:46.749Z,29.70
2022-08-26T10:32:02.651Z,29.80
2022-08-26T10:33:07.183Z,29.86
2022-08-26T10:34:10.332Z,29.92
2022-08-26T10:35:15.659Z,29.97
2022-08-26T10:36:20.230Z,29.96
2022-08-26T10:37:26.670Z,30.01
2022-08-26T10:38:39.227Z,30.00
2022-08-26T10:39:55.240Z,29.90
2022-08-26T10:41:09.901Z,29.92
2022-08-26T10:42:22.842Z,30.00
2022-08-26T10:43:33.245Z,30.13
2022-08-26T10:44:37.942Z,30.05
2022-08-26T10:45:44.060Z,29.99
2022-08-26T10:46:48.106Z,30.05
2022-08-26T10:47:55.530Z,30.11
2022-08-26T10:49:08.585Z,30.25
2022-08-26T10:50:10.260Z,30.15
2022-08-26T10:51:15.826Z,30.21
2022-08-26T10:52:29.430Z,30.20
2022-08-26T10:53:32.749Z,30.17
2022-08-26T10:54:40.173Z,30.22
2022-08-26T10:55:48.038Z,30.19
2022-08-26T10:56:54.081Z,30.15
2022-08-26T10:57:55.751Z,30.24
2022-08-26T10:59:06.408Z,30.33
2022-08-26T11:00:18.124Z,30.46
2022-08-26T11:01:40.706Z,30.57
2022-08-26T11:02:47.477Z,30.80
2022-08-26T11:03:59.538Z,30.90
2022-08-26T11:05:02.754Z,30.80
2022-08-26T11:06:19.342Z,30.85
2022-08-26T11:07:39.321Z,30.93
2022-08-26T11:08:51.335Z,31.02
2022-08-26T11:09:53.493Z,31.14
2022-08-26T11:10:59.273Z,31.19
2022-08-26T11:12:05.108Z,31.19
2022-08-26T11:13:11.555Z,31.24
2022-08-26T11:14:18.914Z,31.27
2022-08-26T11:15:30.874Z,31.30
2022-08-26T11:16:46.043Z,31.39
2022-08-26T11:17:47.548Z,31.44
2022-08-26T11:18:51.355Z,31.47
2022-08-26T11:20:00.797Z,31.48
2022-08-26T11:21:24.597Z,31.53
2022-08-26T11:22:31.051Z,31.46
2022-08-26T11:23:32.418Z,31.49
2022-08-26T11:24:46.697Z,31.54
2022-08-26T11:26:06.702Z,31.59
2022-08-26T11:27:11.397Z,31.44
2022-08-26T11:28:31.424Z,31.33
2022-08-26T11:29:52.096Z,31.33
2022-08-26T11:30:58.116Z,31.17
2022-08-26T11:31:59.888Z,31.11
2022-08-26T11:33:01.485Z,31.08
2022-08-26T11:34:04.734Z,31.03
2022-08-26T11:35:10.650Z,31.02
2022-08-26T11:36:29.112Z,31.04
2022-08-26T11:37:40.604Z,31.13
2022-08-26T11:38:42.834Z,31.28
2022-08-26T11:39:56.928Z,31.33
2022-08-26T11:41:06.579Z,31.45
2022-08-26T11:42:31.428Z,31.45
2022-08-26T11:43:33.026Z,31.35
2022-08-26T11:44:39.493Z,31.40
2022-08-26T11:45:43.440Z,31.60
2022-08-26T11:46:52.134Z,31.73
2022-08-26T11:47:54.097Z,31.80
2022-08-26T11:49:02.670Z,31.96
2022-08-26T11:50:17.774Z,31.90
2022-08-26T11:51:19.385Z,31.83
2022-08-26T11:52:21.965Z,31.91
2022-08-26T11:53:24.018Z,32.00
2022-08-26T11:54:35.097Z,31.90
2022-08-26T11:55:41.708Z,31.85
2022-08-26T11:56:45.489Z,31.79
2022-08-26T11:57:49.233Z,31.69
2022-08-26T11:58:54.101Z,31.82
2022-08-26T11:59:56.189Z,31.87
2022-08-26T12:01:03.601Z,31.74
2022-08-26T12:02:11.577Z,31.80
2022-08-26T12:03:17.800Z,31.88
2022-08-26T12:04:25.149Z,31.87
2022-08-26T12:05:30.954Z,31.95
2022-08-26T12:06:42.047Z,31.98
2022-08-26T12:07:49.145Z,32.23
2022-08-26T12:08:51.907Z,32.30
2022-08-26T12:10:02.261Z,32.49
2022-08-26T12:11:05.245Z,32.59
2022-08-26T12:12:14.841Z,32.47
2022-08-26T12:13:24.053Z,32.34
2022-08-26T12:14:27.935Z,32.08
2022-08-26T12:15:31.312Z,31.91
2022-08-26T12:16:34.404Z,31.87
2022-08-26T12:17:35.998Z,31.69
2022-08-26T12:18:39.403Z,31.59
2022-08-26T12:19:40.857Z,31.45
2022-08-26T12:20:42.387Z,31.44
2022-08-26T12:21:47.410Z,31.44
2022-08-26T12:22:50.011Z,31.34
2022-08-26T12:23:54.437Z,31.32
2022-08-26T12:25:00.426Z,31.37
2022-08-26T12:26:04.209Z,31.38
2022-08-26T12:27:08.774Z,31.53
2022-08-26T12:28:10.349Z,31.62
2022-08-26T12:29:27.484Z,31.69
2022-08-26T12:30:28.958Z,31.84
2022-08-26T12:31:32.593Z,32.00
2022-08-26T12:32:34.795Z,31.96
2022-08-26T12:33:37.722Z,31.87
2022-08-26T12:34:40.902Z,31.89
2022-08-26T12:35:42.516Z,31.91
2022-08-26T12:36:44.156Z,31.83
2022-08-26T12:37:48.827Z,32.00
2022-08-26T12:38:53.745Z,31.89
2022-08-26T12:40:17.882Z,31.89
2022-08-26T12:41:41.014Z,31.84
2022-08-26T12:42:42.491Z,31.77
2022-08-26T12:43:45.005Z,31.69
2022-08-26T12:44:54.144Z,31.52
2022-08-26T12:45:57.878Z,31.32
2022-08-26T12:47:03.684Z,31.40
2022-08-26T12:48:10.456Z,31.55
2022-08-26T12:49:17.122Z,31.42
2022-08-26T12:50:23.543Z,31.34
2022-08-26T12:51:26.465Z,31.23
2022-08-26T12:52:29.286Z,31.16
2022-08-26T12:53:31.946Z,31.33
2022-08-26T12:54:33.867Z,31.53
2022-08-26T12:55:42.786Z,31.69
2022-08-26T12:56:44.198Z,31.94
2022-08-26T12:57:45.670Z,31.89
2022-08-26T12:59:00.330Z,31.82
2022-08-26T13:00:20.459Z,31.74
2022-08-26T13:01:27.888Z,31.56
2022-08-26T13:02:36.594Z,31.46
2022-08-26T13:03:44.333Z,31.50
2022-08-26T13:04:45.797Z,31.55
2022-08-26T13:05:47.226Z,31.30
2022-08-26T13:06:48.589Z,31.43
2022-08-26T13:08:09.266Z,31.44
2022-08-26T13:09:10.660Z,31.47
2022-08-26T13:10:31.999Z,31.57
2022-08-26T13:11:35.031Z,31.48
2022-08-26T13:12:36.419Z,31.54
2022-08-26T13:13:38.571Z,31.58
2022-08-26T13:14:40.119Z,31.40
2022-08-26T13:15:41.513Z,31.21
2022-08-26T13:16:43.243Z,31.20
2022-08-26T13:17:44.665Z,31.21
2022-08-26T13:18:50.154Z,31.12
2022-08-26T13:19:51.542Z,31.09
2022-08-26T13:20:52.942Z,31.09
2022-08-26T13:21:56.245Z,30.98
2022-08-26T13:22:58.703Z,31.08
2022-08-26T13:24:02.658Z,31.17
2022-08-26T13:25:04.217Z,31.17
2022-08-26T13:26:05.650Z,31.21
2022-08-26T13:27:09.125Z,31.18
2022-08-26T13:28:10.590Z,31.13
2022-08-26T13:29:12.513Z,31.13
2022-08-26T13:30:13.921Z,31.20
2022-08-26T13:31:15.972Z,31.08
2022-08-26T13:32:19.373Z,31.07
2022-08-26T13:33:21.810Z,31.10
2022-08-26T13:34:23.528Z,31.05
2022-08-26T13:35:25.106Z,30.97
2022-08-26T13:36:26.513Z,30.97
2022-08-26T13:37:34.230Z,31.06
2022-08-26T13:38:36.801Z,31.00
2022-08-26T13:39:38.231Z,31.02
2022-08-26T13:40:39.647Z,31.01
2022-08-26T13:41:41.233Z,31.00
2022-08-26T13:42:49.504Z,30.95
2022-08-26T13:43:51.183Z,30.79
2022-08-26T13:44:52.528Z,30.82
2022-08-26T13:45:54.295Z,30.82
2022-08-26T13:46:55.686Z,30.77
2022-08-26T13:47:57.065Z,30.78
2022-08-26T13:48:58.484Z,30.79
2022-08-26T13:49:59.906Z,30.88
2022-08-26T13:51:01.970Z,30.90
2022-08-26T13:52:04.099Z,30.94